sensor_id;sensor_type;location;lat;lon;timestamp;pressure;altitude;pressure_sealevel;temperature;humidity
3122;BME280;1571;52.524;14.104;2023-02-13T00:01:02;103297.41;;;6.53;100.00
3122;BME280;1571;52.524;14.104;2023-02-13T00:03:31;103293.03;;;6.43;100.00
3122;BME280;1571;52.524;14.104;2023-02-13T00:06:00;103301.78;;;6.51;100.00
3122;BME280;1571;52.524;14.104;2023-02-13T00:08:28;103294.81;;;6.44;100.00
3122;BME280;1571;52.524;14.104;2023-02-13T00:10:57;103295.66;;;6.43;100.00
3122;BME280;1571;52.524;14.104;2023-02-13T00:13:26;103300.97;;;6.37;100.00
3122;BME280;1571;52.524;14.104;2023-02-13T00:15:55;103306.22;;;6.44;100.00
3122;BME280;1571;52.524;14.104;2023-02-13T00:18:24;103308.03;;;6.33;100.00
3122;BME280;1571;52.524;14.104;2023-02-13T00:20:58;103301.84;;;6.34;100.00
3122;BME280;1571;52.524;14.104;2023-02-13T00:23:29;103309.72;;;6.43;100.00
3122;BME280;1571;52.524;14.104;2023-02-13T00:25:57;103312.41;;;6.40;100.00
3122;BME280;1571;52.524;14.104;2023-02-13T00:28:26;103312.38;;;6.43;100.00
3122;BME280;1571;52.524;14.104;2023-02-13T00:31:02;103320.28;;;6.43;100.00
3122;BME280;1571;52.524;14.104;2023-02-13T00:33:30;103318.44;;;6.64;100.00
3122;BME280;1571;52.524;14.104;2023-02-13T00:36:06;103315.00;;;6.48;100.00
3122;BME280;1571;52.524;14.104;2023-02-13T00:38:35;103322.06;;;6.37;100.00
3122;BME280;1571;52.524;14.104;2023-02-13T00:41:03;103323.84;;;6.38;100.00
3122;BME280;1571;52.524;14.104;2023-02-13T00:43:32;103325.56;;;6.43;100.00
3122;BME280;1571;52.524;14.104;2023-02-13T00:46:00;103332.63;;;6.37;100.00
3122;BME280;1571;52.524;14.104;2023-02-13T00:48:31;103331.72;;;6.47;100.00
3122;BME280;1571;52.524;14.104;2023-02-13T00:50:59;103322.06;;;6.44;100.00
3122;BME280;1571;52.524;14.104;2023-02-13T00:53:31;103300.91;;;6.55;100.00
3122;BME280;1571;52.524;14.104;2023-02-13T00:55:59;103285.06;;;6.52;100.00
3122;BME280;1571;52.524;14.104;2023-02-13T00:58:28;103304.53;;;6.23;100.00
3122;BME280;1571;52.524;14.104;2023-02-13T01:00:57;103308.94;;;6.26;100.00
3122;BME280;1571;52.524;14.104;2023-02-13T01:03:26;103321.25;;;6.24;100.00
3122;BME280;1571;52.524;14.104;2023-02-13T01:05:55;103332.69;;;6.24;100.00
3122;BME280;1571;52.524;14.104;2023-02-13T01:08:24;103334.44;;;6.21;100.00
3122;BME280;1571;52.524;14.104;2023-02-13T01:10:55;103333.56;;;6.22;100.00
3122;BME280;1571;52.524;14.104;2023-02-13T01:13:24;103337.97;;;6.18;100.00
3122;BME280;1571;52.524;14.104;2023-02-13T01:15:54;103335.34;;;6.14;100.00
3122;BME280;1571;52.524;14.104;2023-02-13T01:18:23;103343.25;;;6.18;100.00
3122;BME280;1571;52.524;14.104;2023-02-13T01:20:56;103346.75;;;6.27;100.00
3122;BME280;1571;52.524;14.104;2023-02-13T01:23:28;103342.34;;;6.24;100.00
3122;BME280;1571;52.524;14.104;2023-02-13T01:25:58;103335.31;;;6.17;100.00
3122;BME280;1571;52.524;14.104;2023-02-13T01:28:27;103338.84;;;6.17;100.00
3122;BME280;1571;52.524;14.104;2023-02-13T01:30:56;103338.84;;;6.22;100.00
3122;BME280;1571;52.524;14.104;2023-02-13T01:33:27;103345.00;;;6.18;100.00
3122;BME280;1571;52.524;14.104;2023-02-13T01:35:55;103339.72;;;6.19;100.00
3122;BME280;1571;52.524;14.104;2023-02-13T01:38:24;103336.19;;;6.20;100.00
3122;BME280;1571;52.524;14.104;2023-02-13T01:40:53;103334.44;;;6.18;100.00
3122;BME280;1571;52.524;14.104;2023-02-13T01:43:24;103327.44;;;6.11;100.00
3122;BME280;1571;52.524;14.104;2023-02-13T01:45:55;103333.59;;;6.07;100.00
3122;BME280;1571;52.524;14.104;2023-02-13T01:48:24;103330.97;;;6.03;100.00
3122;BME280;1571;52.524;14.104;2023-02-13T01:50:59;103330.97;;;6.03;100.00
3122;BME280;1571;52.524;14.104;2023-02-13T01:53:32;103333.59;;;6.17;100.00
3122;BME280;1571;52.524;14.104;2023-02-13T01:56:09;103340.66;;;6.01;100.00
3122;BME280;1571;52.524;14.104;2023-02-13T01:58:42;103332.75;;;5.97;100.00
3122;BME280;1571;52.524;14.104;2023-02-13T02:01:11;103331.84;;;5.96;100.00
3122;BME280;1571;52.524;14.104;2023-02-13T02:03:44;103337.13;;;5.99;100.00
3122;BME280;1571;52.524;14.104;2023-02-13T02:06:18;103343.25;;;5.91;100.00
3122;BME280;1571;52.524;14.104;2023-02-13T02:08:50;103330.97;;;5.97;100.00
3122;BME280;1571;52.524;14.104;2023-02-13T02:11:25;103328.34;;;6.00;100.00
3122;BME280;1571;52.524;14.104;2023-02-13T02:13:57;103327.44;;;5.98;100.00
3122;BME280;1571;52.524;14.104;2023-02-13T02:16:31;103319.56;;;6.01;100.00
3122;BME280;1571;52.524;14.104;2023-02-13T02:19:04;103333.59;;;5.94;100.00
3122;BME280;1571;52.524;14.104;2023-02-13T02:25:13;103328.34;;;5.97;100.00
3122;BME280;1571;52.524;14.104;2023-02-13T02:28:13;103335.38;;;5.98;100.00
3122;BME280;1571;52.524;14.104;2023-02-13T02:34:11;103333.59;;;5.87;100.00
3122;BME280;1571;52.524;14.104;2023-02-13T02:37:04;103317.78;;;6.02;100.00
3122;BME280;1571;52.524;14.104;2023-02-13T02:39:44;103323.06;;;5.88;100.00
3122;BME280;1571;52.524;14.104;2023-02-13T02:42:23;103320.44;;;5.83;100.00
3122;BME280;1571;52.524;14.104;2023-02-13T02:45:04;103322.19;;;5.84;100.00
3122;BME280;1571;52.524;14.104;2023-02-13T02:47:41;103312.53;;;5.76;100.00
3122;BME280;1571;52.524;14.104;2023-02-13T02:50:36;103322.22;;;5.72;100.00
3122;BME280;1571;52.524;14.104;2023-02-13T02:53:15;103315.16;;;5.79;100.00
3122;BME280;1571;52.524;14.104;2023-02-13T02:55:49;103315.16;;;5.77;100.00
3122;BME280;1571;52.524;14.104;2023-02-13T02:58:24;103313.41;;;5.75;100.00
3122;BME280;1571;52.524;14.104;2023-02-13T03:01:15;103305.53;;;5.66;100.00
3122;BME280;1571;52.524;14.104;2023-02-13T03:04:03;103317.81;;;5.63;100.00
3122;BME280;1571;52.524;14.104;2023-02-13T03:06:53;103317.81;;;5.67;100.00
3122;BME280;1571;52.524;14.104;2023-02-13T03:09:26;103323.09;;;5.57;100.00
3122;BME280;1571;52.524;14.104;2023-02-13T03:12:16;103309.03;;;5.72;100.00
3122;BME280;1571;52.524;14.104;2023-02-13T03:15:05;103304.63;;;5.57;100.00
3122;BME280;1571;52.524;14.104;2023-02-13T03:17:33;103309.00;;;5.64;100.00
3122;BME280;1571;52.524;14.104;2023-02-13T03:20:27;103301.97;;;5.60;100.00
3122;BME280;1571;52.524;14.104;2023-02-13T03:23:25;103309.03;;;5.55;100.00
3122;BME280;1571;52.524;14.104;2023-02-13T03:26:06;103308.16;;;5.56;100.00
3122;BME280;1571;52.524;14.104;2023-02-13T03:28:47;103308.16;;;5.59;100.00
3122;BME280;1571;52.524;14.104;2023-02-13T03:31:43;103307.28;;;5.45;100.00
3122;BME280;1571;52.524;14.104;2023-02-13T03:34:19;103306.38;;;5.49;100.00
3122;BME280;1571;52.524;14.104;2023-02-13T03:36:52;103310.78;;;5.53;100.00
3122;BME280;1571;52.524;14.104;2023-02-13T03:39:47;103312.53;;;5.48;100.00
3122;BME280;1571;52.524;14.104;2023-02-13T03:42:22;103304.63;;;5.56;100.00
3122;BME280;1571;52.524;14.104;2023-02-13T03:44:59;103302.00;;;5.67;100.00
3122;BME280;1571;52.524;14.104;2023-02-13T03:47:50;103288.84;;;5.59;100.00
3122;BME280;1571;52.524;14.104;2023-02-13T03:50:21;103288.81;;;5.71;100.00
3122;BME280;1571;52.524;14.104;2023-02-13T03:52:52;103282.66;;;5.81;100.00
3122;BME280;1571;52.524;14.104;2023-02-13T03:55:27;103286.19;;;5.59;100.00
3122;BME280;1571;52.524;14.104;2023-02-13T03:58:16;103277.41;;;5.58;100.00
3122;BME280;1571;52.524;14.104;2023-02-13T04:01:07;103279.16;;;5.59;100.00
3122;BME280;1571;52.524;14.104;2023-02-13T04:03:40;103270.38;;;5.63;100.00
3122;BME280;1571;52.524;14.104;2023-02-13T04:06:13;103256.31;;;5.61;100.00
3122;BME280;1571;52.524;14.104;2023-02-13T04:08:43;103251.97;;;5.45;100.00
3122;BME280;1571;52.524;14.104;2023-02-13T04:11:17;103245.78;;;5.49;100.00
3122;BME280;1571;52.524;14.104;2023-02-13T04:13:51;103244.06;;;5.45;100.00
3122;BME280;1571;52.524;14.104;2023-02-13T04:16:28;103227.38;;;5.48;100.00
3122;BME280;1571;52.524;14.104;2023-02-13T04:18:58;103234.38;;;5.39;100.00
3122;BME280;1571;52.524;14.104;2023-02-13T04:21:31;103230.03;;;5.34;100.00
3122;BME280;1571;52.524;14.104;2023-02-13T04:23:59;103221.22;;;5.38;100.00
3122;BME280;1571;52.524;14.104;2023-02-13T04:26:33;103236.13;;;5.27;100.00
3122;BME280;1571;52.524;14.104;2023-02-13T04:29:02;103223.84;;;5.41;100.00
3122;BME280;1571;52.524;14.104;2023-02-13T04:31:30;103209.81;;;5.45;100.00
3122;BME280;1571;52.524;14.104;2023-02-13T04:33:59;103198.38;;;5.43;100.00
3122;BME280;1571;52.524;14.104;2023-02-13T04:36:27;103201.88;;;5.42;100.00
3122;BME280;1571;52.524;14.104;2023-02-13T04:38:56;103194.88;;;5.35;100.00
3122;BME280;1571;52.524;14.104;2023-02-13T04:41:24;103189.63;;;5.36;100.00
3122;BME280;1571;52.524;14.104;2023-02-13T04:43:53;103193.13;;;5.32;100.00
3122;BME280;1571;52.524;14.104;2023-02-13T04:46:22;103202.81;;;5.27;100.00
3122;BME280;1571;52.524;14.104;2023-02-13T04:48:50;103187.84;;;5.37;100.00
3122;BME280;1571;52.524;14.104;2023-02-13T04:51:18;103184.31;;;5.44;100.00
3122;BME280;1571;52.524;14.104;2023-02-13T04:53:46;103179.06;;;5.44;100.00
3122;BME280;1571;52.524;14.104;2023-02-13T04:56:14;103175.56;;;5.34;100.00
3122;BME280;1571;52.524;14.104;2023-02-13T04:58:45;103177.28;;;5.52;100.00
3122;BME280;1571;52.524;14.104;2023-02-13T05:01:16;103171.16;;;5.38;100.00
3122;BME280;1571;52.524;14.104;2023-02-13T05:03:44;103165.91;;;5.30;100.00
3122;BME280;1571;52.524;14.104;2023-02-13T05:06:13;103155.34;;;5.44;100.00
3122;BME280;1571;52.524;14.104;2023-02-13T05:08:41;103161.47;;;5.55;100.00
3122;BME280;1571;52.524;14.104;2023-02-13T05:11:09;103165.03;;;5.39;100.00
3122;BME280;1571;52.524;14.104;2023-02-13T05:13:37;103162.34;;;5.56;100.00
3122;BME280;1571;52.524;14.104;2023-02-13T05:16:05;103162.34;;;5.53;100.00
3122;BME280;1571;52.524;14.104;2023-02-13T05:18:35;103158.81;;;5.61;100.00
3122;BME280;1571;52.524;14.104;2023-02-13T05:21:04;103154.44;;;5.54;100.00
3122;BME280;1571;52.524;14.104;2023-02-13T05:23:46;103150.09;;;5.35;100.00
3122;BME280;1571;52.524;14.104;2023-02-13T05:26:14;103163.28;;;5.26;100.00
3122;BME280;1571;52.524;14.104;2023-02-13T05:28:43;103165.06;;;5.10;100.00
3122;BME280;1571;52.524;14.104;2023-02-13T05:31:28;103172.03;;;5.37;100.00
3122;BME280;1571;52.524;14.104;2023-02-13T05:33:58;103167.66;;;5.34;100.00
3122;BME280;1571;52.524;14.104;2023-02-13T05:36:27;103183.47;;;5.02;100.00
3122;BME280;1571;52.524;14.104;2023-02-13T05:38:55;103187.00;;;4.99;100.00
3122;BME280;1571;52.524;14.104;2023-02-13T05:41:23;103182.63;;;5.12;100.00
3122;BME280;1571;52.524;14.104;2023-02-13T05:43:52;103187.00;;;5.04;100.00
3122;BME280;1571;52.524;14.104;2023-02-13T05:46:20;103200.16;;;5.04;100.00
3122;BME280;1571;52.524;14.104;2023-02-13T05:48:48;103178.22;;;5.19;100.00
3122;BME280;1571;52.524;14.104;2023-02-13T05:51:18;103182.63;;;5.25;100.00
3122;BME280;1571;52.524;14.104;2023-02-13T05:53:47;103171.16;;;5.33;100.00
3122;BME280;1571;52.524;14.104;2023-02-13T05:56:15;103170.28;;;5.33;100.00
3122;BME280;1571;52.524;14.104;2023-02-13T05:58:43;103165.03;;;5.33;100.00
3122;BME280;1571;52.524;14.104;2023-02-13T06:01:12;103165.00;;;5.42;100.00
3122;BME280;1571;52.524;14.104;2023-02-13T06:03:40;103166.78;;;5.34;100.00
3122;BME280;1571;52.524;14.104;2023-02-13T06:06:08;103167.66;;;5.40;100.00
3122;BME280;1571;52.524;14.104;2023-02-13T06:08:38;103179.09;;;5.19;100.00
3122;BME280;1571;52.524;14.104;2023-02-13T06:11:07;103177.31;;;5.31;100.00
3122;BME280;1571;52.524;14.104;2023-02-13T06:13:35;103186.13;;;5.20;100.00
3122;BME280;1571;52.524;14.104;2023-02-13T06:16:06;103187.88;;;5.34;100.00
3122;BME280;1571;52.524;14.104;2023-02-13T06:18:35;103195.78;;;5.01;100.00
3122;BME280;1571;52.524;14.104;2023-02-13T06:21:06;103198.38;;;5.31;100.00
3122;BME280;1571;52.524;14.104;2023-02-13T06:23:34;103193.13;;;5.37;100.00
3122;BME280;1571;52.524;14.104;2023-02-13T06:26:05;103191.38;;;5.45;100.00
3122;BME280;1571;52.524;14.104;2023-02-13T06:28:34;103204.53;;;5.50;100.00
3122;BME280;1571;52.524;14.104;2023-02-13T06:31:02;103193.13;;;5.35;100.00
3122;BME280;1571;52.524;14.104;2023-02-13T06:33:31;103194.88;;;5.35;100.00
3122;BME280;1571;52.524;14.104;2023-02-13T06:35:59;103189.63;;;5.27;100.00
3122;BME280;1571;52.524;14.104;2023-02-13T06:38:28;103192.25;;;5.32;100.00
3122;BME280;1571;52.524;14.104;2023-02-13T06:40:59;103179.09;;;5.32;100.00
3122;BME280;1571;52.524;14.104;2023-02-13T06:43:29;103179.09;;;5.32;100.00
3122;BME280;1571;52.524;14.104;2023-02-13T06:45:57;103186.09;;;5.34;100.00
3122;BME280;1571;52.524;14.104;2023-02-13T06:48:25;103182.63;;;5.25;100.00
3122;BME280;1571;52.524;14.104;2023-02-13T06:50:54;103189.59;;;5.29;100.00
3122;BME280;1571;52.524;14.104;2023-02-13T06:53:22;103201.03;;;5.20;100.00
3122;BME280;1571;52.524;14.104;2023-02-13T06:55:51;103188.75;;;5.22;100.00
3122;BME280;1571;52.524;14.104;2023-02-13T06:58:21;103191.38;;;5.30;100.00
3122;BME280;1571;52.524;14.104;2023-02-13T07:00:51;103201.06;;;5.14;100.00
3122;BME280;1571;52.524;14.104;2023-02-13T07:03:20;103199.28;;;5.20;100.00
3122;BME280;1571;52.524;14.104;2023-02-13T07:05:48;103193.13;;;5.28;100.00
3122;BME280;1571;52.524;14.104;2023-02-13T07:08:18;103202.81;;;5.22;100.00
3122;BME280;1571;52.524;14.104;2023-02-13T07:10:46;103208.06;;;5.30;100.00
3122;BME280;1571;52.524;14.104;2023-02-13T07:13:14;103204.53;;;5.45;100.00
3122;BME280;1571;52.524;14.104;2023-02-13T07:15:42;103198.38;;;5.58;100.00
3122;BME280;1571;52.524;14.104;2023-02-13T07:18:12;103197.47;;;5.61;100.00
3122;BME280;1571;52.524;14.104;2023-02-13T07:20:40;103195.72;;;5.54;100.00
3122;BME280;1571;52.524;14.104;2023-02-13T07:23:09;103202.75;;;5.49;100.00
3122;BME280;1571;52.524;14.104;2023-02-13T07:25:37;103201.03;;;5.38;100.00
3122;BME280;1571;52.524;14.104;2023-02-13T07:28:05;103200.97;;;5.66;100.00
3122;BME280;1571;52.524;14.104;2023-02-13T07:30:34;103199.28;;;5.34;100.00
3122;BME280;1571;52.524;14.104;2023-02-13T07:33:03;103191.34;;;5.54;100.00
3122;BME280;1571;52.524;14.104;2023-02-13T07:35:33;103197.50;;;5.47;100.00
3122;BME280;1571;52.524;14.104;2023-02-13T07:38:02;103201.84;;;5.62;100.00
3122;BME280;1571;52.524;14.104;2023-02-13T07:40:31;103201.81;;;5.79;100.00
3122;BME280;1571;52.524;14.104;2023-02-13T07:42:59;103203.63;;;5.61;100.00
3122;BME280;1571;52.524;14.104;2023-02-13T07:45:28;103198.28;;;5.74;100.00
3122;BME280;1571;52.524;14.104;2023-02-13T07:47:57;103198.38;;;5.52;100.00
3122;BME280;1571;52.524;14.104;2023-02-13T07:50:26;103189.50;;;5.81;100.00
3122;BME280;1571;52.524;14.104;2023-02-13T07:52:58;103203.56;;;5.78;100.00
3122;BME280;1571;52.524;14.104;2023-02-13T07:55:27;103199.19;;;5.77;100.00
3122;BME280;1571;52.524;14.104;2023-02-13T07:57:56;103202.72;;;5.64;100.00
3122;BME280;1571;52.524;14.104;2023-02-13T08:00:26;103204.47;;;5.71;100.00
3122;BME280;1571;52.524;14.104;2023-02-13T08:02:57;103206.22;;;5.69;100.00
3122;BME280;1571;52.524;14.104;2023-02-13T08:05:26;103206.22;;;5.77;100.00
3122;BME280;1571;52.524;14.104;2023-02-13T08:07:54;103217.63;;;5.76;100.00
3122;BME280;1571;52.524;14.104;2023-02-13T08:10:24;103209.72;;;5.83;100.00
3122;BME280;1571;52.524;14.104;2023-02-13T08:13:24;103213.19;;;5.96;100.00
3122;BME280;1571;52.524;14.104;2023-02-13T08:15:53;103214.09;;;5.83;100.00
3122;BME280;1571;52.524;14.104;2023-02-13T08:18:22;103209.69;;;5.96;100.00
3122;BME280;1571;52.524;14.104;2023-02-13T08:20:50;103218.50;;;5.79;100.00
3122;BME280;1571;52.524;14.104;2023-02-13T08:23:18;103221.16;;;5.81;100.00
3122;BME280;1571;52.524;14.104;2023-02-13T08:25:48;103216.69;;;5.98;100.00
3122;BME280;1571;52.524;14.104;2023-02-13T08:28:16;103207.03;;;5.90;100.00
3122;BME280;1571;52.524;14.104;2023-02-13T08:30:45;103203.53;;;5.88;100.00
3122;BME280;1571;52.524;14.104;2023-02-13T08:33:13;103200.88;;;6.01;100.00
3122;BME280;1571;52.524;14.104;2023-02-13T08:35:41;103200.88;;;6.03;100.00
3122;BME280;1571;52.524;14.104;2023-02-13T08:38:09;103200.06;;;5.81;100.00
3122;BME280;1571;52.524;14.104;2023-02-13T08:40:38;103199.97;;;6.09;100.00
3122;BME280;1571;52.524;14.104;2023-02-13T08:43:08;103197.38;;;5.90;100.00
3122;BME280;1571;52.524;14.104;2023-02-13T08:45:36;103193.84;;;6.08;100.00
3122;BME280;1571;52.524;14.104;2023-02-13T08:48:05;103201.75;;;6.00;100.00
3122;BME280;1571;52.524;14.104;2023-02-13T08:50:33;103198.19;;;6.14;100.00
3122;BME280;1571;52.524;14.104;2023-02-13T08:53:03;103206.94;;;6.20;100.00
3122;BME280;1571;52.524;14.104;2023-02-13T08:55:31;103200.75;;;6.29;100.00
3122;BME280;1571;52.524;14.104;2023-02-13T08:58:00;103201.63;;;6.28;100.00
3122;BME280;1571;52.524;14.104;2023-02-13T09:00:30;103209.47;;;6.40;100.00
3122;BME280;1571;52.524;14.104;2023-02-13T09:03:02;103200.63;;;6.52;100.00
3122;BME280;1571;52.524;14.104;2023-02-13T09:05:31;103206.81;;;6.43;100.00
3122;BME280;1571;52.524;14.104;2023-02-13T09:07:59;103204.19;;;6.45;100.00
3122;BME280;1571;52.524;14.104;2023-02-13T09:10:30;103205.09;;;6.44;100.00
3122;BME280;1571;52.524;14.104;2023-02-13T09:12:59;103210.28;;;6.58;100.00
3122;BME280;1571;52.524;14.104;2023-02-13T09:15:27;103217.31;;;6.53;100.00
3122;BME280;1571;52.524;14.104;2023-02-13T09:17:58;103214.63;;;6.65;100.00
3122;BME280;1571;52.524;14.104;2023-02-13T09:20:26;103216.41;;;6.58;100.00
3122;BME280;1571;52.524;14.104;2023-02-13T09:22:54;103224.31;;;6.63;100.00
3122;BME280;1571;52.524;14.104;2023-02-13T09:25:24;103214.63;;;6.62;100.00
3122;BME280;1571;52.524;14.104;2023-02-13T09:27:52;103211.16;;;6.55;100.00
3122;BME280;1571;52.524;14.104;2023-02-13T09:30:21;103222.59;;;6.56;100.00
3122;BME280;1571;52.524;14.104;2023-02-13T09:32:51;103221.56;;;6.77;100.00
3122;BME280;1571;52.524;14.104;2023-02-13T09:35:22;103220.75;;;6.67;100.00
3122;BME280;1571;52.524;14.104;2023-02-13T09:37:50;103212.84;;;6.64;100.00
3122;BME280;1571;52.524;14.104;2023-02-13T09:40:23;103209.25;;;6.77;100.00
3122;BME280;1571;52.524;14.104;2023-02-13T09:42:55;103206.63;;;6.74;100.00
3122;BME280;1571;52.524;14.104;2023-02-13T09:45:27;103210.94;;;6.84;100.00
3122;BME280;1571;52.524;14.104;2023-02-13T09:47:56;103206.44;;;6.96;100.00
3122;BME280;1571;52.524;14.104;2023-02-13T09:50:28;103208.34;;;6.81;100.00
3122;BME280;1571;52.524;14.104;2023-02-13T09:52:59;103199.53;;;6.79;100.00
3122;BME280;1571;52.524;14.104;2023-02-13T09:55:33;103200.38;;;6.84;100.00
3122;BME280;1571;52.524;14.104;2023-02-13T09:58:07;103196.94;;;6.78;100.00
3122;BME280;1571;52.524;14.104;2023-02-13T10:00:39;103199.47;;;6.92;100.00
3122;BME280;1571;52.524;14.104;2023-02-13T10:03:18;103202.97;;;6.91;100.00
3122;BME280;1571;52.524;14.104;2023-02-13T10:05:57;103209.09;;;6.97;100.00
3122;BME280;1571;52.524;14.104;2023-02-13T10:08:40;103194.97;;;7.01;100.00
3122;BME280;1571;52.524;14.104;2023-02-13T10:11:26;103195.06;;;6.94;100.00
3122;BME280;1571;52.524;14.104;2023-02-13T10:14:00;103200.31;;;6.97;100.00
3122;BME280;1571;52.524;14.104;2023-02-13T10:16:34;103196.75;;;6.98;100.00
3122;BME280;1571;52.524;14.104;2023-02-13T10:19:12;103196.66;;;7.10;100.00
3122;BME280;1571;52.524;14.104;2023-02-13T10:21:48;103195.75;;;7.14;100.00
3122;BME280;1571;52.524;14.104;2023-02-13T10:24:27;103202.88;;;7.06;100.00
3122;BME280;1571;52.524;14.104;2023-02-13T10:27:00;103197.53;;;7.09;100.00
3122;BME280;1571;52.524;14.104;2023-02-13T10:29:37;103188.53;;;7.35;100.00
3122;BME280;1571;52.524;14.104;2023-02-13T10:32:28;103192.97;;;7.28;100.00
3122;BME280;1571;52.524;14.104;2023-02-13T10:35:00;103193.75;;;7.41;100.00
3122;BME280;1571;52.524;14.104;2023-02-13T10:37:31;103175.06;;;7.58;100.00
3122;BME280;1571;52.524;14.104;2023-02-13T10:39:59;103172.22;;;7.75;100.00
3122;BME280;1571;52.524;14.104;2023-02-13T10:42:34;103171.44;;;7.66;100.00
3122;BME280;1571;52.524;14.104;2023-02-13T10:45:18;103172.56;;;7.44;100.00
3122;BME280;1571;52.524;14.104;2023-02-13T10:48:00;103173.34;;;7.54;100.00
3122;BME280;1571;52.524;14.104;2023-02-13T10:50:37;103162.00;;;7.44;100.00
3122;BME280;1571;52.524;14.104;2023-02-13T10:53:18;103160.22;;;7.43;100.00
3122;BME280;1571;52.524;14.104;2023-02-13T10:59:04;103149.59;;;7.52;100.00
3122;BME280;1571;52.524;14.104;2023-02-13T11:01:40;103140.91;;;7.41;100.00
3122;BME280;1571;52.524;14.104;2023-02-13T11:04:15;103144.41;;;7.40;100.00
3122;BME280;1571;52.524;14.104;2023-02-13T11:06:50;103135.72;;;7.28;100.00
3122;BME280;1571;52.524;14.104;2023-02-13T11:09:23;103140.25;;;7.17;100.00
3122;BME280;1571;52.524;14.104;2023-02-13T11:11:53;103138.47;;;7.19;100.00
3122;BME280;1571;52.524;14.104;2023-02-13T11:14:23;103133.13;;;7.22;100.00
3122;BME280;1571;52.524;14.104;2023-02-13T11:16:57;103139.47;;;7.04;100.00
3122;BME280;1571;52.524;14.104;2023-02-13T11:19:31;103148.44;;;6.90;100.00
3122;BME280;1571;52.524;14.104;2023-02-13T11:22:03;103144.75;;;7.06;100.00
3122;BME280;1571;52.524;14.104;2023-02-13T11:24:33;103153.69;;;6.91;100.00
3122;BME280;1571;52.524;14.104;2023-02-13T11:27:04;103146.53;;;7.07;100.00
3122;BME280;1571;52.524;14.104;2023-02-13T11:29:36;103153.59;;;7.05;100.00
3122;BME280;1571;52.524;14.104;2023-02-13T11:32:20;103144.56;;;7.24;100.00
3122;BME280;1571;52.524;14.104;2023-02-13T11:34:49;103146.97;;;7.47;100.00
3122;BME280;1571;52.524;14.104;2023-02-13T11:37:25;103134.63;;;7.48;100.00
3122;BME280;1571;52.524;14.104;2023-02-13T11:39:58;103133.59;;;7.61;100.00
3122;BME280;1571;52.524;14.104;2023-02-13T11:42:29;103133.72;;;7.49;100.00
3122;BME280;1571;52.524;14.104;2023-02-13T11:45:00;103133.59;;;7.61;100.00
3122;BME280;1571;52.524;14.104;2023-02-13T11:47:31;103131.84;;;7.60;100.00
3122;BME280;1571;52.524;14.104;2023-02-13T11:50:01;103133.88;;;7.37;100.00
3122;BME280;1571;52.524;14.104;2023-02-13T11:52:31;103129.66;;;7.19;100.00
3122;BME280;1571;52.524;14.104;2023-02-13T11:55:05;103137.59;;;7.17;100.00
3122;BME280;1571;52.524;14.104;2023-02-13T11:57:55;103140.38;;;7.02;100.00
3122;BME280;1571;52.524;14.104;2023-02-13T12:00:33;103140.44;;;6.97;100.00
3122;BME280;1571;52.524;14.104;2023-02-13T12:03:24;103138.69;;;6.96;100.00
3122;BME280;1571;52.524;14.104;2023-02-13T12:05:59;103137.69;;;7.08;100.00
3122;BME280;1571;52.524;14.104;2023-02-13T12:08:29;103131.59;;;7.01;100.00
3122;BME280;1571;52.524;14.104;2023-02-13T12:10:59;103135.91;;;7.10;100.00
3122;BME280;1571;52.524;14.104;2023-02-13T12:13:31;103140.34;;;7.09;100.00
3122;BME280;1571;52.524;14.104;2023-02-13T12:16:03;103136.78;;;7.09;100.00
3122;BME280;1571;52.524;14.104;2023-02-13T12:18:36;103137.84;;;6.91;100.00
3122;BME280;1571;52.524;14.104;2023-02-13T12:21:17;103133.41;;;6.95;100.00
3122;BME280;1571;52.524;14.104;2023-02-13T12:23:56;103118.47;;;6.94;100.00
3122;BME280;1571;52.524;14.104;2023-02-13T12:26:31;103124.59;;;6.96;100.00
3122;BME280;1571;52.524;14.104;2023-02-13T12:29:40;103113.09;;;7.03;100.00
3122;BME280;1571;52.524;14.104;2023-02-13T12:32:17;103117.53;;;6.99;100.00
3122;BME280;1571;52.524;14.104;2023-02-13T12:34:59;103124.47;;;7.09;100.00
3122;BME280;1571;52.524;14.104;2023-02-13T12:37:51;103123.53;;;7.15;100.00
3122;BME280;1571;52.524;14.104;2023-02-13T12:40:32;103123.53;;;7.17;100.00
3122;BME280;1571;52.524;14.104;2023-02-13T12:43:20;103112.16;;;7.08;100.00
3122;BME280;1571;52.524;14.104;2023-02-13T12:45:58;103114.69;;;7.18;100.00
3122;BME280;1571;52.524;14.104;2023-02-13T12:48:34;103107.63;;;7.20;100.00
3122;BME280;1571;52.524;14.104;2023-02-13T12:51:16;103114.63;;;7.22;99.97
3122;BME280;1571;52.524;14.104;2023-02-13T12:53:55;103120.94;;;7.12;100.00
3122;BME280;1571;52.524;14.104;2023-02-13T12:56:38;103119.94;;;7.22;99.92
3122;BME280;1571;52.524;14.104;2023-02-13T12:59:16;103115.38;;;7.37;100.00
3122;BME280;1571;52.524;14.104;2023-02-13T13:02:11;103114.63;;;7.22;99.73
3122;BME280;1571;52.524;14.104;2023-02-13T13:04:50;103117.22;;;7.30;98.57
3122;BME280;1571;52.524;14.104;2023-02-13T13:07:43;103129.59;;;7.25;97.65
3122;BME280;1571;52.524;14.104;2023-02-13T13:10:35;103122.63;;;7.19;96.91
3122;BME280;1571;52.524;14.104;2023-02-13T13:13:16;103113.00;;;7.12;97.08
3122;BME280;1571;52.524;14.104;2023-02-13T13:15:53;103121.13;;;6.92;97.15
3122;BME280;1571;52.524;14.104;2023-02-13T13:18:39;103120.16;;;6.98;96.65
3122;BME280;1571;52.524;14.104;2023-02-13T13:21:22;103121.22;;;6.80;96.16
3122;BME280;1571;52.524;14.104;2023-02-13T13:23:58;103123.81;;;6.84;95.61
3122;BME280;1571;52.524;14.104;2023-02-13T13:26:33;103124.75;;;6.80;95.87
3122;BME280;1571;52.524;14.104;2023-02-13T13:29:05;103136.22;;;6.73;96.34
3122;BME280;1571;52.524;14.104;2023-02-13T13:31:39;103123.88;;;6.75;95.79
3122;BME280;1571;52.524;14.104;2023-02-13T13:34:15;103136.25;;;6.68;95.43
3122;BME280;1571;52.524;14.104;2023-02-13T13:36:47;103123.97;;;6.69;95.30
3122;BME280;1571;52.524;14.104;2023-02-13T13:39:29;103120.34;;;6.79;94.47
3122;BME280;1571;52.524;14.104;2023-02-13T13:42:06;103113.31;;;6.75;94.02